createdAt,value
2017-12-01T00:00:26.834Z,6.61
2017-12-01T00:02:52.754Z,6.33
2017-12-01T00:05:18.696Z,6.25
2017-12-01T00:07:44.643Z,6.25
2017-12-01T00:10:10.570Z,6.03
2017-12-01T00:12:36.494Z,6.24
2017-12-01T00:15:02.434Z,6.25
2017-12-01T00:17:28.373Z,6.44
2017-12-01T00:19:54.295Z,6.35
2017-12-01T00:22:20.220Z,6.22
2017-12-01T00:24:46.172Z,6.03
2017-12-01T00:27:12.104Z,5.76
2017-12-01T00:29:38.036Z,5.66
2017-12-01T00:32:03.972Z,5.95
2017-12-01T00:34:29.897Z,6.04
2017-12-01T00:36:55.828Z,5.58
2017-12-01T00:39:21.751Z,5.63
2017-12-01T00:41:47.682Z,5.48
2017-12-01T00:44:13.638Z,5.83
2017-12-01T00:46:39.559Z,5.54
2017-12-01T00:49:05.489Z,5.74
2017-12-01T00:51:31.422Z,5.56
2017-12-01T00:53:57.346Z,5.57
2017-12-01T00:56:23.280Z,5.67
2017-12-01T00:58:49.531Z,5.74
2017-12-01T01:01:15.453Z,5.99
2017-12-01T01:03:41.373Z,5.47
2017-12-01T01:06:07.296Z,5.41
2017-12-01T01:08:33.227Z,5.50
2017-12-01T01:10:59.170Z,5.32
2017-12-01T01:13:25.109Z,5.45
2017-12-01T01:15:51.050Z,5.11
2017-12-01T01:18:16.972Z,5.07
2017-12-01T01:20:42.917Z,5.12
2017-12-01T01:23:08.870Z,5.07
2017-12-01T01:25:34.814Z,5.08
2017-12-01T01:28:00.762Z,5.20
2017-12-01T01:30:26.695Z,5.19
2017-12-01T01:32:52.621Z,5.13
2017-12-01T01:35:18.554Z,5.65
2017-12-01T01:37:44.475Z,5.38
2017-12-01T01:40:10.388Z,5.22
2017-12-01T01:42:36.326Z,5.31
2017-12-01T01:45:02.258Z,5.26
2017-12-01T01:47:28.210Z,4.93
2017-12-01T01:49:54.144Z,5.06
2017-12-01T01:52:20.060Z,4.98
2017-12-01T01:54:45.983Z,5.22
2017-12-01T01:57:11.907Z,5.31
2017-12-01T01:59:37.827Z,5.07
2017-12-01T02:02:03.804Z,5.00
2017-12-01T02:04:29.741Z,5.49
2017-12-01T02:06:55.661Z,5.58
2017-12-01T02:09:21.583Z,5.23
2017-12-01T02:11:47.503Z,4.88
2017-12-01T02:14:13.425Z,5.04
2017-12-01T02:16:39.358Z,5.33
2017-12-01T02:19:05.297Z,4.98
2017-12-01T02:21:31.232Z,5.30
2017-12-01T02:23:57.169Z,5.26
2017-12-01T02:26:23.106Z,5.06
2017-12-01T02:28:49.021Z,4.92
2017-12-01T02:31:14.948Z,5.02
2017-12-01T02:33:40.911Z,4.90
2017-12-01T02:36:06.879Z,5.29
2017-12-01T02:38:32.812Z,5.25
2017-12-01T02:40:58.738Z,5.12
2017-12-01T02:43:24.701Z,5.34
2017-12-01T02:45:50.621Z,5.29
2017-12-01T02:48:16.559Z,5.02
2017-12-01T02:50:42.482Z,5.13
2017-12-01T02:53:08.416Z,5.12
2017-12-01T02:55:34.351Z,5.08
2017-12-01T02:58:00.269Z,5.13
2017-12-01T03:00:26.215Z,5.23
2017-12-01T03:02:52.137Z,5.23
2017-12-01T03:05:18.068Z,5.36
2017-12-01T03:07:44.009Z,5.29
2017-12-01T03:10:09.939Z,5.56
2017-12-01T03:12:35.903Z,5.03
2017-12-01T03:15:01.830Z,5.13
2017-12-01T03:17:27.753Z,5.19
2017-12-01T03:19:53.677Z,5.20
2017-12-01T03:22:19.635Z,5.03
2017-12-01T03:24:45.557Z,5.13
2017-12-01T03:27:11.475Z,5.17
2017-12-01T03:29:37.401Z,5.47
2017-12-01T03:32:03.333Z,5.03
2017-12-01T03:34:29.289Z,5.13
2017-12-01T03:36:55.211Z,5.42
2017-12-01T03:39:21.139Z,5.02
2017-12-01T03:41:47.067Z,5.08
2017-12-01T03:44:13.002Z,5.36
2017-12-01T03:46:38.927Z,5.40
2017-12-01T03:49:04.851Z,5.23
2017-12-01T03:51:30.773Z,5.09
2017-12-01T03:53:56.711Z,4.95
2017-12-01T03:56:22.797Z,4.96
2017-12-01T03:58:48.737Z,4.96
2017-12-01T04:01:14.676Z,4.89
2017-12-01T04:03:40.615Z,4.65
2017-12-01T04:06:06.541Z,4.86
2017-12-01T04:08:32.495Z,4.64
2017-12-01T04:10:58.411Z,4.66
2017-12-01T04:13:24.468Z,4.61
2017-12-01T04:15:50.399Z,4.60
2017-12-01T04:18:16.319Z,4.58
2017-12-01T04:20:42.331Z,4.67
2017-12-01T04:23:08.267Z,4.71
2017-12-01T04:25:34.275Z,4.87
2017-12-01T04:28:00.379Z,4.70
2017-12-01T04:30:26.421Z,4.64
2017-12-01T04:32:52.447Z,4.75
2017-12-01T04:35:18.413Z,4.47
2017-12-01T04:37:44.339Z,4.57
2017-12-01T04:40:10.267Z,4.45
2017-12-01T04:42:36.215Z,4.47
2017-12-01T04:45:02.155Z,4.45
2017-12-01T04:47:28.109Z,4.60
2017-12-01T04:49:54.031Z,4.72
2017-12-01T04:52:19.980Z,4.60
2017-12-01T04:54:45.907Z,4.71
2017-12-01T04:57:11.857Z,4.84
2017-12-01T04:59:37.803Z,4.44
2017-12-01T05:02:03.737Z,4.90
2017-12-01T05:04:29.661Z,5.10
2017-12-01T05:06:55.583Z,4.89
2017-12-01T05:09:21.522Z,4.97
2017-12-01T05:11:47.461Z,4.86
2017-12-01T05:14:13.388Z,5.25
2017-12-01T05:16:39.327Z,4.89
2017-12-01T05:19:05.271Z,4.77
2017-12-01T05:21:31.303Z,4.79
2017-12-01T05:23:57.302Z,5.01
2017-12-01T05:26:23.224Z,5.11
2017-12-01T05:28:49.169Z,5.14
2017-12-01T05:31:15.103Z,5.38
2017-12-01T05:33:41.031Z,5.12
2017-12-01T05:36:07.013Z,5.09
2017-12-01T05:38:32.935Z,5.20
2017-12-01T05:40:58.875Z,5.55
2017-12-01T05:43:24.810Z,5.42
2017-12-01T05:45:50.741Z,5.31
2017-12-01T05:48:16.699Z,5.12
2017-12-01T05:50:42.793Z,5.25
2017-12-01T05:53:08.761Z,5.40
2017-12-01T05:55:34.689Z,5.25
2017-12-01T05:58:00.631Z,5.38
2017-12-01T06:00:26.573Z,5.30
2017-12-01T06:02:52.508Z,5.55
2017-12-01T06:05:18.437Z,5.44
2017-12-01T06:07:44.367Z,5.42
2017-12-01T06:10:10.389Z,5.26
2017-12-01T06:12:36.324Z,5.02
2017-12-01T06:15:02.283Z,5.12
2017-12-01T06:17:28.211Z,5.48
2017-12-01T06:19:54.127Z,5.45
2017-12-01T06:22:20.075Z,5.21
2017-12-01T06:24:46.027Z,5.13
2017-12-01T06:27:11.970Z,5.14
2017-12-01T06:29:37.903Z,5.25
2017-12-01T06:32:03.831Z,5.33
2017-12-01T06:34:29.777Z,5.51
2017-12-01T06:36:55.724Z,5.62
2017-12-01T06:39:21.651Z,5.52
2017-12-01T06:41:47.599Z,5.59
2017-12-01T06:44:13.533Z,5.67
2017-12-01T06:46:39.479Z,5.52
2017-12-01T06:49:05.465Z,5.33
2017-12-01T06:51:31.391Z,5.56
2017-12-01T06:53:57.351Z,6.00
2017-12-01T06:56:23.275Z,5.57
2017-12-01T06:58:49.205Z,5.62
2017-12-01T07:01:15.151Z,5.84
2017-12-01T07:03:41.075Z,5.79
2017-12-01T07:06:07.034Z,5.47
2017-12-01T07:08:32.960Z,5.28
2017-12-01T07:10:58.896Z,5.37
2017-12-01T07:13:24.819Z,5.26
2017-12-01T07:15:50.743Z,5.73
2017-12-01T07:18:16.675Z,6.10
2017-12-01T07:20:42.630Z,5.68
2017-12-01T07:23:08.584Z,5.74
2017-12-01T07:25:34.528Z,5.67
2017-12-01T07:28:00.498Z,5.82
2017-12-01T07:30:26.441Z,5.58
2017-12-01T07:32:52.423Z,5.66
2017-12-01T07:35:18.401Z,5.70
2017-12-01T07:37:44.347Z,5.64
2017-12-01T07:40:10.307Z,5.95
2017-12-01T07:42:36.236Z,5.83
2017-12-01T07:45:02.167Z,5.52
2017-12-01T07:47:28.097Z,5.36
2017-12-01T07:49:54.031Z,5.41
2017-12-01T07:52:19.975Z,5.74
2017-12-01T07:54:45.911Z,5.23
2017-12-01T07:57:11.834Z,5.57
2017-12-01T07:59:37.767Z,5.64
2017-12-01T08:02:03.693Z,5.31
2017-12-01T08:04:29.627Z,5.31
2017-12-01T08:06:55.557Z,5.44
2017-12-01T08:09:21.496Z,5.22
2017-12-01T08:11:47.450Z,5.27
2017-12-01T08:14:13.371Z,5.24
2017-12-01T08:16:39.313Z,5.35
2017-12-01T08:19:05.237Z,5.19
2017-12-01T08:21:31.181Z,5.27
2017-12-01T08:23:57.112Z,5.28
2017-12-01T08:26:23.061Z,5.53
2017-12-01T08:28:49.001Z,5.50
2017-12-01T08:31:14.928Z,5.62
2017-12-01T08:33:40.863Z,5.44
2017-12-01T08:36:06.809Z,5.81
2017-12-01T08:38:32.741Z,5.73
2017-12-01T08:40:58.663Z,5.61
2017-12-01T08:43:24.579Z,5.93
2017-12-01T08:45:50.506Z,5.58
2017-12-01T08:48:16.454Z,5.76
2017-12-01T08:50:42.446Z,6.44
2017-12-01T08:53:08.351Z,6.16
2017-12-01T08:55:34.275Z,6.00
2017-12-01T08:58:00.207Z,6.12
2017-12-01T09:00:26.138Z,6.15
2017-12-01T09:02:52.063Z,6.33
2017-12-01T09:05:17.993Z,6.36
2017-12-01T09:07:43.915Z,6.39
2017-12-01T09:10:09.834Z,6.40
2017-12-01T09:12:35.767Z,6.69
2017-12-01T09:15:01.895Z,6.82
2017-12-01T09:17:27.858Z,6.48
2017-12-01T09:19:53.794Z,6.40
2017-12-01T09:22:19.731Z,6.51
2017-12-01T09:24:45.658Z,6.58
2017-12-01T09:27:11.591Z,6.61
2017-12-01T09:29:37.511Z,6.59
2017-12-01T09:32:03.467Z,6.48
2017-12-01T09:34:29.391Z,6.45
2017-12-01T09:36:55.312Z,6.79
2017-12-01T09:39:21.249Z,6.84
2017-12-01T09:41:47.175Z,6.58
2017-12-01T09:44:13.091Z,6.60
2017-12-01T09:46:39.006Z,6.95
2017-12-01T09:49:04.943Z,6.98
2017-12-01T09:51:30.937Z,7.08
2017-12-01T09:53:56.887Z,6.63
2017-12-01T09:56:22.806Z,6.75
2017-12-01T09:58:48.727Z,7.13
2017-12-01T10:01:14.658Z,7.03
2017-12-01T10:03:40.599Z,7.09
2017-12-01T10:06:06.529Z,7.04
2017-12-01T10:08:32.438Z,7.21
2017-12-01T10:10:58.377Z,7.14
2017-12-01T10:13:24.304Z,6.97
2017-12-01T10:15:50.222Z,6.98
2017-12-01T10:18:16.167Z,7.11
2017-12-01T10:20:42.107Z,7.20
2017-12-01T10:23:08.045Z,7.35
2017-12-01T10:25:33.971Z,7.36
2017-12-01T10:27:59.907Z,7.26
2017-12-01T10:30:25.846Z,7.07
2017-12-01T10:32:51.795Z,7.15
2017-12-01T10:35:17.723Z,7.29
2017-12-01T10:37:43.659Z,7.48
2017-12-01T10:40:09.591Z,7.29
2017-12-01T10:42:35.515Z,7.21
2017-12-01T10:45:01.443Z,7.03
2017-12-01T10:47:27.380Z,7.21
2017-12-01T10:49:53.322Z,7.34
2017-12-01T10:52:19.290Z,7.55
2017-12-01T10:54:45.269Z,7.51
2017-12-01T10:57:11.207Z,7.55
2017-12-01T10:59:37.147Z,7.36
2017-12-01T11:02:03.156Z,7.44
2017-12-01T11:04:29.087Z,7.31
2017-12-01T11:06:55.022Z,7.40
2017-12-01T11:09:20.951Z,7.37
2017-12-01T11:11:46.883Z,7.26
2017-12-01T11:14:12.831Z,7.41
2017-12-01T11:16:38.751Z,7.46
2017-12-01T11:19:04.683Z,7.40
2017-12-01T11:21:30.626Z,7.49
2017-12-01T11:23:56.559Z,7.50
2017-12-01T11:26:22.514Z,7.49
2017-12-01T11:28:48.500Z,7.32
2017-12-01T11:31:14.398Z,7.56
2017-12-01T11:33:40.340Z,7.62
2017-12-01T11:36:06.295Z,7.75
2017-12-01T11:38:32.236Z,7.73
2017-12-01T11:40:58.219Z,7.46
2017-12-01T11:43:24.153Z,7.59
2017-12-01T11:45:50.101Z,7.53
2017-12-01T11:48:16.051Z,7.64
2017-12-01T11:50:41.991Z,7.86
2017-12-01T11:53:07.919Z,7.94
2017-12-01T11:55:33.844Z,7.47
2017-12-01T11:57:59.771Z,7.52
2017-12-01T12:00:25.731Z,7.59
2017-12-01T12:02:51.655Z,7.45
2017-12-01T12:05:17.627Z,7.44
2017-12-01T12:07:43.551Z,7.40
2017-12-01T12:10:09.471Z,7.41
2017-12-01T12:12:35.450Z,7.31
2017-12-01T12:15:01.375Z,7.40
2017-12-01T12:17:27.296Z,7.51
2017-12-01T12:19:53.215Z,7.41
2017-12-01T12:22:19.159Z,7.55
2017-12-01T12:24:45.106Z,7.43
2017-12-01T12:27:11.093Z,7.50
2017-12-01T12:29:37.038Z,7.56
2017-12-01T12:32:02.967Z,7.35
2017-12-01T12:34:28.882Z,7.29
2017-12-01T12:36:54.850Z,7.46
2017-12-01T12:39:20.784Z,7.36
2017-12-01T12:41:46.763Z,7.28
2017-12-01T12:44:12.689Z,7.28
2017-12-01T12:46:38.623Z,7.37
2017-12-01T12:49:04.561Z,7.34
2017-12-01T12:51:30.475Z,7.29
2017-12-01T12:53:56.447Z,7.33
2017-12-01T12:56:22.374Z,7.39
2017-12-01T12:58:48.312Z,7.48
2017-12-01T13:01:14.280Z,7.31
2017-12-01T13:03:40.205Z,7.27
2017-12-01T13:06:06.157Z,7.24
2017-12-01T13:08:32.087Z,7.24
2017-12-01T13:10:58.067Z,7.32
2017-12-01T13:13:24.014Z,7.42
2017-12-01T13:15:49.932Z,7.08
2017-12-01T13:18:15.852Z,7.19
2017-12-01T13:20:41.830Z,7.23
2017-12-01T13:23:07.765Z,7.33
2017-12-01T13:25:33.695Z,7.39
2017-12-01T13:27:59.619Z,7.26
2017-12-01T13:30:25.538Z,7.10
2017-12-01T13:32:51.483Z,7.22
2017-12-01T13:35:17.422Z,7.14
2017-12-01T13:37:43.349Z,7.03
2017-12-01T13:40:09.290Z,7.10
2017-12-01T13:42:35.223Z,7.17
2017-12-01T13:45:01.158Z,7.19
2017-12-01T13:47:27.082Z,7.19
2017-12-01T13:49:53.018Z,7.21
2017-12-01T13:52:18.977Z,7.22
2017-12-01T13:54:44.935Z,7.20
2017-12-01T13:57:10.876Z,7.07
2017-12-01T13:59:36.817Z,7.19
2017-12-01T14:02:02.756Z,7.22
2017-12-01T14:04:28.687Z,6.99
2017-12-01T14:06:54.624Z,7.18
2017-12-01T14:09:20.570Z,6.84
2017-12-01T14:11:46.494Z,6.91
2017-12-01T14:14:12.639Z,6.94
2017-12-01T14:16:38.599Z,6.98
2017-12-01T14:19:04.524Z,6.95
2017-12-01T14:21:30.454Z,6.93
2017-12-01T14:23:56.405Z,7.19
2017-12-01T14:26:22.405Z,7.04
2017-12-01T14:28:48.334Z,6.90
2017-12-01T14:31:14.270Z,6.95
2017-12-01T14:33:40.215Z,7.06
2017-12-01T14:36:06.178Z,7.05
2017-12-01T14:38:32.114Z,7.05
2017-12-01T14:40:58.038Z,7.03
2017-12-01T14:43:23.987Z,7.06
2017-12-01T14:45:50.039Z,7.08
2017-12-01T14:48:15.970Z,7.00
2017-12-01T14:50:41.908Z,6.97
2017-12-01T14:53:07.843Z,6.97
2017-12-01T14:55:33.793Z,7.00
2017-12-01T14:57:59.743Z,6.98
2017-12-01T15:00:25.715Z,6.76
2017-12-01T15:02:51.698Z,6.84
2017-12-01T15:05:17.579Z,6.84
2017-12-01T15:07:43.501Z,6.81
2017-12-01T15:10:09.512Z,6.90
2017-12-01T15:12:35.398Z,6.83
2017-12-01T15:15:01.324Z,6.93
2017-12-01T15:17:27.298Z,6.70
2017-12-01T15:19:53.202Z,6.99
2017-12-01T15:22:19.143Z,6.88
2017-12-01T15:24:45.062Z,6.83
2017-12-01T15:27:11.015Z,6.81
2017-12-01T15:29:36.950Z,6.69
2017-12-01T15:32:02.922Z,6.78
2017-12-01T15:34:28.860Z,6.79
2017-12-01T15:36:54.859Z,6.80
2017-12-01T15:39:20.821Z,6.76
2017-12-01T15:41:46.782Z,6.71
2017-12-01T15:44:12.714Z,6.64
2017-12-01T15:46:38.653Z,6.57
2017-12-01T15:49:04.614Z,6.65
2017-12-01T15:51:30.625Z,6.62
2017-12-01T15:53:56.594Z,6.54
2017-12-01T15:56:22.536Z,6.74
2017-12-01T15:58:48.481Z,6.55
2017-12-01T16:01:14.412Z,6.57
2017-12-01T16:03:40.349Z,6.81
2017-12-01T16:06:06.272Z,6.79
2017-12-01T16:08:32.327Z,6.86
2017-12-01T16:10:58.278Z,6.69
2017-12-01T16:13:24.203Z,6.76
2017-12-01T16:15:50.176Z,6.77
2017-12-01T16:18:16.098Z,6.66
2017-12-01T16:20:42.047Z,6.75
2017-12-01T16:23:07.999Z,6.77
2017-12-01T16:25:33.967Z,6.88
2017-12-01T16:27:59.888Z,6.97
2017-12-01T16:30:25.833Z,6.90
2017-12-01T16:32:51.768Z,6.81
2017-12-01T16:35:18.930Z,6.77
2017-12-01T16:37:44.858Z,6.86
2017-12-01T16:40:10.823Z,6.86
2017-12-01T16:42:36.766Z,6.59
2017-12-01T16:45:02.723Z,6.59
2017-12-01T16:47:28.666Z,6.63
2017-12-01T16:49:54.598Z,6.70
2017-12-01T16:52:20.530Z,6.90
2017-12-01T16:54:46.460Z,6.88
2017-12-01T16:57:12.427Z,6.76
2017-12-01T16:59:38.349Z,6.83
2017-12-01T17:02:04.275Z,6.83
2017-12-01T17:04:30.240Z,6.94
2017-12-01T17:06:56.171Z,6.86
2017-12-01T17:09:22.104Z,6.87
2017-12-01T17:11:48.029Z,6.85
2017-12-01T17:14:13.994Z,6.75
2017-12-01T17:16:39.935Z,6.72
2017-12-01T17:19:05.854Z,6.81
2017-12-01T17:21:31.799Z,6.74
2017-12-01T17:23:57.726Z,6.59
2017-12-01T17:26:23.666Z,6.81
2017-12-01T17:28:49.605Z,6.81
2017-12-01T17:31:15.550Z,6.78
2017-12-01T17:33:41.557Z,6.77
2017-12-01T17:36:07.500Z,6.72
2017-12-01T17:38:33.430Z,6.62
2017-12-01T17:40:59.356Z,6.43
2017-12-01T17:43:25.299Z,6.82
2017-12-01T17:45:51.253Z,6.77
2017-12-01T17:48:17.208Z,6.83
2017-12-01T17:50:43.147Z,6.69
2017-12-01T17:53:09.091Z,6.76
2017-12-01T17:55:35.028Z,6.79
2017-12-01T17:58:00.960Z,6.89
2017-12-01T18:00:26.886Z,6.75
2017-12-01T18:02:52.836Z,6.72
2017-12-01T18:05:18.830Z,6.81
2017-12-01T18:07:44.830Z,6.71
2017-12-01T18:10:10.772Z,6.83
2017-12-01T18:12:36.722Z,6.76
2017-12-01T18:15:02.666Z,6.57
2017-12-01T18:17:28.648Z,6.60
2017-12-01T18:19:54.598Z,6.70
2017-12-01T18:22:20.524Z,6.72
2017-12-01T18:24:46.478Z,6.74
2017-12-01T18:27:12.404Z,6.82
2017-12-01T18:29:38.352Z,6.68
2017-12-01T18:32:04.337Z,6.67
2017-12-01T18:34:30.268Z,6.72
2017-12-01T18:36:56.205Z,6.63
2017-12-01T18:39:22.160Z,6.63
2017-12-01T18:41:48.205Z,6.69
2017-12-01T18:44:14.143Z,6.60
2017-12-01T18:46:40.090Z,6.76
2017-12-01T18:49:06.030Z,6.75
2017-12-01T18:51:31.976Z,6.58
2017-12-01T18:53:58.018Z,6.70
2017-12-01T18:56:23.956Z,6.64
2017-12-01T18:58:49.958Z,6.73
2017-12-01T19:01:15.916Z,6.58
2017-12-01T19:03:41.861Z,6.64
2017-12-01T19:06:07.799Z,6.71
2017-12-01T19:08:33.946Z,6.62
2017-12-01T19:10:59.972Z,6.72
2017-12-01T19:13:25.944Z,6.63
2017-12-01T19:15:51.928Z,6.39
2017-12-01T19:18:17.874Z,6.68
2017-12-01T19:20:43.923Z,6.43
2017-12-01T19:23:09.854Z,6.52
2017-12-01T19:25:35.803Z,6.46
2017-12-01T19:28:01.722Z,6.61
2017-12-01T19:30:27.660Z,6.69
2017-12-01T19:32:53.594Z,6.55
2017-12-01T19:35:19.545Z,6.49
2017-12-01T19:37:45.502Z,6.52
2017-12-01T19:40:11.488Z,6.29
2017-12-01T19:42:37.417Z,6.38
2017-12-01T19:45:03.375Z,6.48
2017-12-01T19:47:29.339Z,6.35
2017-12-01T19:49:55.920Z,6.48
2017-12-01T19:52:21.901Z,6.61
2017-12-01T19:54:47.835Z,6.45
2017-12-01T19:57:13.782Z,6.42
2017-12-01T19:59:39.710Z,6.58
2017-12-01T20:02:05.651Z,6.44
2017-12-01T20:04:33.618Z,6.63
2017-12-01T20:06:59.560Z,6.51
2017-12-01T20:09:25.678Z,6.66
2017-12-01T20:11:51.607Z,6.77
2017-12-01T20:14:17.555Z,6.63
2017-12-01T20:16:43.503Z,6.76
2017-12-01T20:19:09.450Z,6.59
2017-12-01T20:21:35.394Z,6.54
2017-12-01T20:24:01.337Z,6.53
2017-12-01T20:26:27.301Z,6.51
2017-12-01T20:28:53.237Z,6.65
2017-12-01T20:31:19.184Z,6.54
2017-12-01T20:33:45.153Z,6.56
2017-12-01T20:36:11.111Z,6.46
2017-12-01T20:38:37.049Z,6.45
2017-12-01T20:41:03.017Z,6.50
2017-12-01T20:43:28.951Z,6.60
2017-12-01T20:45:54.879Z,6.65
2017-12-01T20:48:20.811Z,6.29
2017-12-01T20:50:46.983Z,6.53
2017-12-01T20:53:12.933Z,6.62
2017-12-01T20:55:38.869Z,6.49
2017-12-01T20:58:04.818Z,6.68
2017-12-01T21:00:30.773Z,6.28
2017-12-01T21:02:56.693Z,6.00
2017-12-01T21:05:22.615Z,6.34
2017-12-01T21:07:48.548Z,6.30
2017-12-01T21:10:14.507Z,6.58
2017-12-01T21:12:40.458Z,6.37
2017-12-01T21:15:06.407Z,6.50
2017-12-01T21:17:32.343Z,6.45
2017-12-01T21:19:58.270Z,6.57
2017-12-01T21:22:24.203Z,6.60
2017-12-01T21:24:50.138Z,6.38
2017-12-01T21:27:16.078Z,6.54
2017-12-01T21:29:42.029Z,6.66
2017-12-01T21:32:08.060Z,6.60
2017-12-01T21:34:34.005Z,6.66
2017-12-01T21:36:59.947Z,6.39
2017-12-01T21:39:25.892Z,6.51
2017-12-01T21:41:51.822Z,6.57
2017-12-01T21:44:17.751Z,6.52
2017-12-01T21:46:43.679Z,6.56
2017-12-01T21:49:09.614Z,6.14
2017-12-01T21:51:35.576Z,6.24
2017-12-01T21:54:01.518Z,6.36
2017-12-01T21:56:27.451Z,6.60
2017-12-01T21:58:53.418Z,6.58
2017-12-01T22:01:19.363Z,6.50
2017-12-01T22:03:45.315Z,6.50
2017-12-01T22:06:11.291Z,6.67
2017-12-01T22:08:37.219Z,6.48
2017-12-01T22:11:03.168Z,6.53
2017-12-01T22:13:29.109Z,6.50
2017-12-01T22:15:55.071Z,6.40
2017-12-01T22:18:21.009Z,6.47
2017-12-01T22:20:46.931Z,6.43
2017-12-01T22:23:12.855Z,6.57
2017-12-01T22:25:38.791Z,6.52
2017-12-01T22:28:04.737Z,6.38
2017-12-01T22:30:30.718Z,6.28
2017-12-01T22:32:56.644Z,6.50
2017-12-01T22:35:22.570Z,6.43
2017-12-01T22:37:48.508Z,6.49
2017-12-01T22:40:14.435Z,6.58
2017-12-01T22:42:40.367Z,6.50
2017-12-01T22:45:06.290Z,6.65
2017-12-01T22:47:32.219Z,6.53
2017-12-01T22:49:58.159Z,6.36
2017-12-01T22:52:24.099Z,6.26
2017-12-01T22:54:50.049Z,6.21
2017-12-01T22:57:16.040Z,6.38
2017-12-01T22:59:41.923Z,6.53
2017-12-01T23:02:08.547Z,6.48
2017-12-01T23:04:34.491Z,6.58
2017-12-01T23:07:00.441Z,6.65
2017-12-01T23:09:26.385Z,6.42
2017-12-01T23:11:52.328Z,6.23
2017-12-01T23:14:18.266Z,6.45
2017-12-01T23:16:44.281Z,6.40
2017-12-01T23:19:10.209Z,6.55
2017-12-01T23:21:36.159Z,6.42
2017-12-01T23:24:02.154Z,6.32
2017-12-01T23:26:28.209Z,6.37
2017-12-01T23:28:54.169Z,6.36
2017-12-01T23:31:20.101Z,6.52
2017-12-01T23:33:46.963Z,6.53
2017-12-01T23:36:13.067Z,6.46
2017-12-01T23:38:39.024Z,6.48
2017-12-01T23:41:04.982Z,6.45
2017-12-01T23:43:30.958Z,6.46
2017-12-01T23:45:56.901Z,6.50
2017-12-01T23:48:22.843Z,6.53
2017-12-01T23:50:48.785Z,6.46
2017-12-01T23:53:14.719Z,6.62
2017-12-01T23:55:40.667Z,6.38
2017-12-01T23:58:06.595Z,6.22
